Time;durP1;ratioP1;P1;durP2;ratioP2;P2;SDS_P1;SDS_P2;PMS_P1;PMS_P2;Temp;Humidity;BMP_temperature;BMP_pressure;BME280_temperature;BME280_humidity;BME280_pressure;Samples;Min_cycle;Max_cycle;Signal;HPM_P1;HPM_P2
2022/08/30 00:02:07;;;;;;;18.05;5.68;;;;;;;;;;10284891;28;20077;-65
2022/08/30 00:07:07;;;;;;;15.27;5.03;;;;;;;;;;10300351;28;20075;-65
2022/08/30 00:12:06;;;;;;;20.38;6.72;;;;;;;;;;10297530;28;20075;-65
2022/08/30 00:17:06;;;;;;;18.13;6.15;;;;;;;;;;10299217;28;20106;-64
2022/08/30 00:22:09;;;;;;;11.13;5.57;;;;;;;;;;10290382;28;20041;-64
2022/08/30 00:27:08;;;;;;;13.70;5.97;;;;;;;;;;10300662;28;20488;-65
2022/08/30 00:32:06;;;;;;;20.00;5.05;;;;;;;;;;10298811;28;20080;-65
2022/08/30 00:37:05;;;;;;;15.90;5.32;;;;;;;;;;10297995;28;20471;-65
2022/08/30 00:42:05;;;;;;;13.77;5.95;;;;;;;;;;10299435;28;20087;-65
2022/08/30 00:47:03;;;;;;;20.02;6.55;;;;;;;;;;10299383;28;20076;-65
2022/08/30 00:52:02;;;;;;;13.98;6.30;;;;;;;;;;10298493;28;20080;-65
2022/08/30 00:57:02;;;;;;;16.05;5.78;;;;;;;;;;10300381;28;20037;-65
2022/08/30 01:02:02;;;;;;;18.17;6.68;;;;;;;;;;10303684;28;20518;-65
2022/08/30 01:07:01;;;;;;;15.10;6.03;;;;;;;;;;10308749;28;20076;-65
2022/08/30 01:12:00;;;;;;;12.57;6.38;;;;;;;;;;10306524;28;20107;-65
2022/08/30 01:17:00;;;;;;;13.77;6.05;;;;;;;;;;10306880;28;20679;-65
2022/08/30 01:22:04;;;;;;;16.40;7.00;;;;;;;;;;10306659;28;20622;-64
2022/08/30 01:27:04;;;;;;;14.57;6.57;;;;;;;;;;10306913;28;20072;-64
2022/08/30 01:32:02;;;;;;;11.55;6.35;;;;;;;;;;10306460;28;20072;-63
2022/08/30 01:37:01;;;;;;;16.08;6.40;;;;;;;;;;10305208;28;20080;-64
2022/08/30 01:41:59;;;;;;;14.18;6.88;;;;;;;;;;10303801;28;20049;-66
2022/08/30 01:46:59;;;;;;;16.83;6.80;;;;;;;;;;10305325;28;20060;-67
2022/08/30 01:51:57;;;;;;;11.43;6.40;;;;;;;;;;10305682;28;20087;-66
2022/08/30 01:56:58;;;;;;;12.80;5.97;;;;;;;;;;10305564;28;20045;-67
2022/08/30 02:01:56;;;;;;;18.88;6.07;;;;;;;;;;10305516;28;20145;-67
2022/08/30 02:06:56;;;;;;;19.05;6.57;;;;;;;;;;10304653;28;20481;-67
2022/08/30 02:11:54;;;;;;;12.00;6.25;;;;;;;;;;10303619;28;20083;-67
2022/08/30 02:16:52;;;;;;;15.65;7.13;;;;;;;;;;10304138;28;20045;-66
2022/08/30 02:21:51;;;;;;;16.55;6.82;;;;;;;;;;10304233;28;20068;-67
2022/08/30 02:26:51;;;;;;;9.98;6.80;;;;;;;;;;10309426;28;20478;-67
2022/08/30 02:31:50;;;;;;;10.68;6.10;;;;;;;;;;10303706;28;20064;-66
2022/08/30 02:36:48;;;;;;;11.95;7.32;;;;;;;;;;10300101;28;20068;-67
2022/08/30 02:41:46;;;;;;;9.90;6.75;;;;;;;;;;10285532;28;20083;-67
2022/08/30 02:46:46;;;;;;;12.90;7.15;;;;;;;;;;10300309;28;20064;-67
2022/08/30 02:51:45;;;;;;;9.95;6.55;;;;;;;;;;10264083;28;20095;-67
2022/08/30 02:56:43;;;;;;;19.65;7.95;;;;;;;;;;10263121;28;20152;-67
2022/08/30 03:01:41;;;;;;;8.05;6.47;;;;;;;;;;10262374;28;20474;-67
2022/08/30 03:06:41;;;;;;;13.18;8.23;;;;;;;;;;10265621;28;20545;-68
2022/08/30 03:11:39;;;;;;;12.88;6.60;;;;;;;;;;10260547;28;20099;-67
2022/08/30 03:16:38;;;;;;;16.27;7.05;;;;;;;;;;10261991;28;20065;-67
2022/08/30 03:21:37;;;;;;;16.63;7.35;;;;;;;;;;10262025;28;20438;-67
2022/08/30 03:26:36;;;;;;;13.48;7.90;;;;;;;;;;10260895;28;20037;-67
2022/08/30 03:31:35;;;;;;;13.40;7.22;;;;;;;;;;10261376;28;20640;-67
2022/08/30 03:36:42;;;;;;;10.30;7.15;;;;;;;;;;10269738;28;20073;-67
2022/08/30 03:41:42;;;;;;;21.48;8.02;;;;;;;;;;10274122;28;20064;-67
2022/08/30 03:46:40;;;;;;;21.38;7.47;;;;;;;;;;10274904;28;20069;-68
2022/08/30 03:51:38;;;;;;;9.43;8.50;;;;;;;;;;10300948;28;20091;-67
2022/08/30 03:56:37;;;;;;;14.73;7.93;;;;;;;;;;10301834;28;20078;-67
2022/08/30 04:01:36;;;;;;;12.48;7.53;;;;;;;;;;10304275;28;20048;-67
2022/08/30 04:06:34;;;;;;;18.85;8.38;;;;;;;;;;10298643;28;20077;-67
2022/08/30 04:11:33;;;;;;;11.25;7.75;;;;;;;;;;10301260;28;20524;-67
2022/08/30 04:16:31;;;;;;;10.13;7.57;;;;;;;;;;10301395;28;20072;-67
2022/08/30 04:21:31;;;;;;;8.30;7.45;;;;;;;;;;10301935;28;20072;-67
2022/08/30 04:26:32;;;;;;;14.52;7.38;;;;;;;;;;10301720;28;20120;-67
2022/08/30 04:31:30;;;;;;;12.27;8.68;;;;;;;;;;10299843;28;20090;-67
2022/08/30 04:36:28;;;;;;;12.77;8.02;;;;;;;;;;10308539;28;20493;-66
2022/08/30 04:41:28;;;;;;;12.63;8.20;;;;;;;;;;10312038;28;20064;-66
2022/08/30 04:46:26;;;;;;;12.93;9.55;;;;;;;;;;10320988;28;20449;-67
2022/08/30 04:51:24;;;;;;;12.30;8.43;;;;;;;;;;10313380;28;20072;-67
2022/08/30 04:56:24;;;;;;;19.85;9.32;;;;;;;;;;10308283;28;20060;-67
2022/08/30 05:01:24;;;;;;;10.05;9.05;;;;;;;;;;10311566;28;20063;-66
2022/08/30 05:06:23;;;;;;;12.45;9.05;;;;;;;;;;10315900;28;20067;-66
2022/08/30 05:11:22;;;;;;;18.58;10.23;;;;;;;;;;10316710;28;20075;-66
2022/08/30 05:16:20;;;;;;;17.08;9.30;;;;;;;;;;10320175;28;20500;-67
2022/08/30 05:21:21;;;;;;;15.38;10.43;;;;;;;;;;10317777;28;20044;-67
2022/08/30 05:26:20;;;;;;;12.23;9.98;;;;;;;;;;10318224;28;20072;-67
2022/08/30 05:31:24;;;;;;;14.32;9.15;;;;;;;;;;10319075;28;20070;-67
2022/08/30 05:36:25;;;;;;;22.42;10.55;;;;;;;;;;10322377;28;20079;-67
2022/08/30 05:41:24;;;;;;;17.85;9.55;;;;;;;;;;10316592;28;20497;-68
2022/08/30 05:46:24;;;;;;;17.50;10.57;;;;;;;;;;10327210;28;20082;-67
2022/08/30 05:51:25;;;;;;;10.82;9.80;;;;;;;;;;10309951;28;20525;-68
2022/08/30 05:56:43;;;;;;;13.55;8.77;;;;;;;;;;10323040;28;20543;-68
2022/08/30 06:01:43;;;;;;;16.75;9.63;;;;;;;;;;10315563;28;20147;-67
2022/08/30 06:06:43;;;;;;;11.50;9.15;;;;;;;;;;10311435;28;20086;-66
2022/08/30 06:11:42;;;;;;;13.68;9.45;;;;;;;;;;10313463;28;20072;-65
2022/08/30 06:16:42;;;;;;;30.67;12.38;;;;;;;;;;10313860;28;20087;-66
2022/08/30 06:21:42;;;;;;;29.25;12.68;;;;;;;;;;10313194;28;20076;-66
2022/08/30 06:26:43;;;;;;;21.13;12.05;;;;;;;;;;10309193;28;20497;-69
2022/08/30 06:31:41;;;;;;;32.75;11.00;;;;;;;;;;10308093;28;20082;-67
2022/08/30 06:36:40;;;;;;;16.60;9.82;;;;;;;;;;10299339;28;20083;-68
2022/08/30 06:41:39;;;;;;;20.08;9.95;;;;;;;;;;10298742;28;20510;-66
2022/08/30 06:46:53;;;;;;;39.88;10.82;;;;;;;;;;10296064;28;20084;-69
2022/08/30 06:51:53;;;;;;;16.77;9.90;;;;;;;;;;10305190;28;20075;-67
2022/08/30 06:56:52;;;;;;;14.00;9.45;;;;;;;;;;10293776;28;20073;-68
2022/08/30 07:01:57;;;;;;;20.60;9.68;;;;;;;;;;10299621;28;20473;-67
2022/08/30 07:06:55;;;;;;;91.25;14.82;;;;;;;;;;10299801;28;20072;-66
2022/08/30 07:11:54;;;;;;;19.45;9.60;;;;;;;;;;10300811;28;20442;-67
2022/08/30 07:16:53;;;;;;;18.80;9.95;;;;;;;;;;10297205;28;20080;-67
2022/08/30 07:21:53;;;;;;;13.07;9.38;;;;;;;;;;10297706;28;20067;-67
2022/08/30 07:26:52;;;;;;;17.10;9.88;;;;;;;;;;10279267;28;20077;-67
2022/08/30 07:31:50;;;;;;;17.70;9.75;;;;;;;;;;10301816;28;20065;-67
2022/08/30 07:36:49;;;;;;;20.85;10.45;;;;;;;;;;10300029;28;20076;-67
2022/08/30 07:41:49;;;;;;;22.42;11.40;;;;;;;;;;10302050;28;20179;-67
2022/08/30 07:46:47;;;;;;;27.85;12.38;;;;;;;;;;10301042;28;20490;-68
2022/08/30 07:51:46;;;;;;;24.83;10.35;;;;;;;;;;10300229;28;20076;-67
2022/08/30 07:56:44;;;;;;;22.75;11.13;;;;;;;;;;10298926;28;20343;-68
2022/08/30 08:01:44;;;;;;;21.58;10.77;;;;;;;;;;10299016;28;20068;-67
2022/08/30 08:06:44;;;;;;;17.25;11.63;;;;;;;;;;10301326;28;20060;-68
2022/08/30 08:11:42;;;;;;;29.10;9.90;;;;;;;;;;10311129;28;20079;-67
2022/08/30 08:16:43;;;;;;;15.35;10.98;;;;;;;;;;10307590;28;20501;-66
2022/08/30 08:21:43;;;;;;;17.65;9.70;;;;;;;;;;10313663;28;20477;-68
2022/08/30 08:26:41;;;;;;;17.02;10.40;;;;;;;;;;10303956;28;20455;-67
2022/08/30 08:31:44;;;;;;;20.08;10.27;;;;;;;;;;10296296;28;20087;-67
2022/08/30 08:36:44;;;;;;;15.20;9.75;;;;;;;;;;10294828;28;20498;-67
2022/08/30 08:41:50;;;;;;;15.60;10.05;;;;;;;;;;10302560;28;20072;-68
2022/08/30 08:46:52;;;;;;;21.42;10.23;;;;;;;;;;10297062;28;20080;-67
2022/08/30 08:57:07;;;;;;;21.95;9.15;;;;;;;;;;10310393;28;20049;-68
2022/08/30 09:02:19;;;;;;;19.23;10.90;;;;;;;;;;10305194;28;20079;-68
2022/08/30 09:07:20;;;;;;;12.50;8.75;;;;;;;;;;10298484;28;20083;-67
2022/08/30 09:12:19;;;;;;;17.77;8.35;;;;;;;;;;10298610;28;20076;-67
2022/08/30 09:17:20;;;;;;;12.65;8.50;;;;;;;;;;10299793;28;20053;-67
2022/08/30 09:22:25;;;;;;;16.65;8.45;;;;;;;;;;10301307;28;20060;-68
2022/08/30 09:27:25;;;;;;;14.05;8.23;;;;;;;;;;10306966;28;20052;-67
2022/08/30 09:32:24;;;;;;;9.57;8.50;;;;;;;;;;10306488;28;20159;-67
2022/08/30 09:37:33;;;;;;;16.02;7.72;;;;;;;;;;10306139;28;20064;-68
2022/08/30 09:42:31;;;;;;;16.27;8.10;;;;;;;;;;10306607;28;20041;-67
2022/08/30 09:47:30;;;;;;;21.15;8.48;;;;;;;;;;10305820;28;20083;-67
2022/08/30 09:52:35;;;;;;;10.05;7.25;;;;;;;;;;10307369;28;20072;-67
2022/08/30 09:57:38;;;;;;;23.58;10.30;;;;;;;;;;10305838;28;20135;-68
2022/08/30 10:02:42;;;;;;;11.93;8.38;;;;;;;;;;10298982;28;20493;-68
2022/08/30 10:07:44;;;;;;;19.75;7.38;;;;;;;;;;10299645;28;20068;-67
2022/08/30 10:12:46;;;;;;;10.40;7.40;;;;;;;;;;10305309;28;20076;-67
2022/08/30 10:17:50;;;;;;;18.25;8.15;;;;;;;;;;10305932;28;20081;-66
2022/08/30 10:22:52;;;;;;;16.80;6.50;;;;;;;;;;10305060;28;20471;-66
2022/08/30 10:28:00;;;;;;;10.80;6.47;;;;;;;;;;10304541;28;20064;-68
2022/08/30 10:33:05;;;;;;;13.95;6.88;;;;;;;;;;10300432;28;20164;-68
2022/08/30 10:38:06;;;;;;;12.30;6.18;;;;;;;;;;10302972;28;20068;-68
2022/08/30 10:43:08;;;;;;;12.20;6.60;;;;;;;;;;10301941;28;20064;-68
2022/08/30 10:48:11;;;;;;;10.23;6.57;;;;;;;;;;10302990;28;20080;-68
2022/08/30 10:53:14;;;;;;;16.93;7.03;;;;;;;;;;10300484;28;20106;-68
2022/08/30 10:58:12;;;;;;;;;;;;;;;;;;10302242;28;20747;-68
2022/08/30 11:03:18;;;;;;;13.10;6.30;;;;;;;;;;10301978;28;19970;-67
2022/08/30 11:08:23;;;;;;;17.15;6.30;;;;;;;;;;10302822;28;20461;-67
2022/08/30 11:13:23;;;;;;;13.32;7.38;;;;;;;;;;10302366;28;20087;-67
2022/08/30 11:18:21;;;;;;;17.70;6.10;;;;;;;;;;10303121;28;20047;-67
2022/08/30 11:23:32;;;;;;;14.25;6.93;;;;;;;;;;10302760;28;20159;-67
2022/08/30 11:28:49;;;;;;;16.75;6.32;;;;;;;;;;10300225;28;20075;-67
2022/08/30 11:33:48;;;;;;;11.85;6.35;;;;;;;;;;10300760;28;20701;-67
2022/08/30 11:39:05;;;;;;;11.20;5.57;;;;;;;;;;10301861;28;20083;-67
2022/08/30 11:44:30;;;;;;;11.05;6.95;;;;;;;;;;10301944;28;20076;-67
2022/08/30 11:49:38;;;;;;;17.58;6.28;;;;;;;;;;10254564;28;20513;-67
2022/08/30 11:54:42;;;;;;;11.88;5.47;;;;;;;;;;10301783;28;20088;-67
2022/08/30 11:59:46;;;;;;;9.32;5.95;;;;;;;;;;10298965;28;20075;-67
2022/08/30 12:04:46;;;;;;;15.32;5.90;;;;;;;;;;10314470;28;20445;-67
2022/08/30 12:10:02;;;;;;;12.25;6.43;;;;;;;;;;10313399;28;20048;-68
2022/08/30 12:15:02;;;;;;;16.67;6.15;;;;;;;;;;10309910;28;20512;-68
2022/08/30 12:20:00;;;;;;;13.57;6.28;;;;;;;;;;10299570;28;20155;-68
2022/08/30 12:24:59;;;;;;;17.40;6.72;;;;;;;;;;10300818;28;20096;-68
2022/08/30 12:30:00;;;;;;;13.18;5.72;;;;;;;;;;10300118;28;20438;-67
2022/08/30 12:35:01;;;;;;;10.38;5.85;;;;;;;;;;10310075;28;20068;-67
2022/08/30 12:40:02;;;;;;;9.68;5.40;;;;;;;;;;10314373;28;20051;-67
2022/08/30 12:45:02;;;;;;;;;;;;;;;;;;10315160;28;20510;-67
2022/08/30 12:50:03;;;;;;;12.80;6.45;;;;;;;;;;10341515;28;19920;-68
2022/08/30 12:55:10;;;;;;;19.63;7.25;;;;;;;;;;10337932;28;20070;-68
2022/08/30 13:00:23;;;;;;;14.10;7.68;;;;;;;;;;10345708;28;20480;-66
2022/08/30 13:05:35;;;;;;;17.35;6.28;;;;;;;;;;10349704;28;20036;-68
2022/08/30 13:10:49;;;;;;;17.27;6.53;;;;;;;;;;10340732;28;20104;-68
2022/08/30 13:15:49;;;;;;;10.70;6.07;;;;;;;;;;10349187;28;20072;-68
2022/08/30 13:20:49;;;;;;;17.08;6.03;;;;;;;;;;10330346;28;20187;-68
2022/08/30 13:25:47;;;;;;;19.75;6.00;;;;;;;;;;10342968;28;20079;-68
2022/08/30 13:30:47;;;;;;;17.15;6.35;;;;;;;;;;10348747;28;20075;-68
2022/08/30 13:35:45;;;;;;;13.48;7.15;;;;;;;;;;10352662;28;20067;-68
2022/08/30 13:40:44;;;;;;;12.25;6.45;;;;;;;;;;10361940;28;20539;-68
2022/08/30 13:45:43;;;;;;;12.98;5.97;;;;;;;;;;10355751;28;20068;-68
2022/08/30 13:50:42;;;;;;;17.35;7.20;;;;;;;;;;10350295;28;20060;-68
2022/08/30 13:55:41;;;;;;;15.02;7.97;;;;;;;;;;10360975;28;20467;-68
2022/08/30 14:00:41;;;;;;;14.50;5.65;;;;;;;;;;10360662;28;20040;-67
2022/08/30 14:05:41;;;;;;;16.33;5.68;;;;;;;;;;10359479;28;20149;-67
2022/08/30 14:10:59;;;;;;;17.75;6.25;;;;;;;;;;10354444;28;20052;-68
2022/08/30 14:16:00;;;;;;;13.27;5.70;;;;;;;;;;10354252;28;20465;-67
2022/08/30 14:21:18;;;;;;;10.52;4.82;;;;;;;;;;10343844;28;20083;-67
2022/08/30 14:26:23;;;;;;;16.23;7.30;;;;;;;;;;10346005;28;20468;-67
2022/08/30 14:31:24;;;;;;;8.45;4.97;;;;;;;;;;10345839;28;20466;-68
2022/08/30 14:36:23;;;;;;;12.85;5.65;;;;;;;;;;10345181;28;20067;-68
2022/08/30 14:41:21;;;;;;;13.50;6.40;;;;;;;;;;10345989;28;20437;-67
2022/08/30 14:46:20;;;;;;;17.50;5.45;;;;;;;;;;10327286;28;20067;-68
2022/08/30 14:51:21;;;;;;;27.95;5.43;;;;;;;;;;10344975;28;20139;-67
2022/08/30 14:56:20;;;;;;;22.60;5.97;;;;;;;;;;10325706;28;20071;-68
2022/08/30 15:01:21;;;;;;;17.92;4.70;;;;;;;;;;10344640;28;20032;-68
2022/08/30 15:06:20;;;;;;;19.27;5.40;;;;;;;;;;10346989;28;20056;-67
2022/08/30 15:11:19;;;;;;;20.95;7.38;;;;;;;;;;10341237;28;20075;-68
2022/08/30 15:16:19;;;;;;;16.38;5.05;;;;;;;;;;10343985;28;20064;-67
2022/08/30 15:21:24;;;;;;;15.00;5.60;;;;;;;;;;10346078;28;20080;-68
2022/08/30 15:26:22;;;;;;;19.33;5.00;;;;;;;;;;10356901;28;20452;-68
2022/08/30 15:31:22;;;;;;;14.02;5.07;;;;;;;;;;10354989;28;20074;-67
2022/08/30 15:36:20;;;;;;;16.10;5.85;;;;;;;;;;10357129;28;20063;-68
2022/08/30 15:41:20;;;;;;;15.00;5.95;;;;;;;;;;10323990;28;20458;-68
2022/08/30 15:46:21;;;;;;;14.88;5.47;;;;;;;;;;10348625;28;20056;-68
2022/08/30 15:51:20;;;;;;;12.45;6.25;;;;;;;;;;10355819;28;20091;-68
2022/08/30 15:56:20;;;;;;;14.68;5.80;;;;;;;;;;10356417;28;20071;-67
2022/08/30 16:01:18;;;;;;;22.10;6.10;;;;;;;;;;10348200;28;20072;-67
2022/08/30 16:06:29;;;;;;;21.83;6.40;;;;;;;;;;10343170;28;20470;-68
2022/08/30 16:11:29;;;;;;;15.55;6.20;;;;;;;;;;10348092;28;20051;-68
2022/08/30 16:16:27;;;;;;;24.20;5.63;;;;;;;;;;10355905;28;20063;-68
2022/08/30 16:21:26;;;;;;;14.50;5.38;;;;;;;;;;10355438;28;20067;-68
2022/08/30 16:26:26;;;;;;;19.55;5.18;;;;;;;;;;10346213;28;20074;-68
2022/08/30 16:31:27;;;;;;;16.20;7.88;;;;;;;;;;10343789;28;20071;-68
2022/08/30 16:36:25;;;;;;;23.55;7.03;;;;;;;;;;10353844;28;20097;-67
2022/08/30 16:41:25;;;;;;;19.65;10.15;;;;;;;;;;10352321;28;20040;-66
2022/08/30 16:46:24;;;;;;;31.25;13.73;;;;;;;;;;10355570;28;20051;-66
2022/08/30 16:51:27;;;;;;;32.72;20.40;;;;;;;;;;10354666;28;20076;-66
2022/08/30 16:56:28;;;;;;;24.10;15.50;;;;;;;;;;10351106;28;20071;-66
2022/08/30 17:01:27;;;;;;;39.22;21.35;;;;;;;;;;10344527;28;20111;-66
2022/08/30 17:06:27;;;;;;;25.23;9.85;;;;;;;;;;10340588;28;20072;-66
2022/08/30 17:11:26;;;;;;;58.30;46.85;;;;;;;;;;10349300;28;20036;-67
2022/08/30 17:16:25;;;;;;;18.27;9.40;;;;;;;;;;10353522;28;20075;-67
2022/08/30 17:21:24;;;;;;;29.92;17.88;;;;;;;;;;10348009;28;20397;-67
2022/08/30 17:26:29;;;;;;;18.00;12.10;;;;;;;;;;10338893;28;20091;-68
2022/08/30 17:31:31;;;;;;;29.27;23.48;;;;;;;;;;10341479;28;20074;-67
2022/08/30 17:36:30;;;;;;;38.30;13.98;;;;;;;;;;10338075;28;20072;-67
2022/08/30 17:41:30;;;;;;;25.75;9.02;;;;;;;;;;10344176;28;20056;-68
2022/08/30 17:46:31;;;;;;;23.67;10.40;;;;;;;;;;10347112;28;20060;-67
2022/08/30 17:51:30;;;;;;;18.38;9.63;;;;;;;;;;10352686;28;20083;-67
2022/08/30 17:56:30;;;;;;;27.65;9.57;;;;;;;;;;10352356;28;20075;-67
2022/08/30 18:01:54;;;;;;;19.38;9.05;;;;;;;;;;10349390;28;20075;-68
2022/08/30 18:07:31;;;;;;;21.10;9.30;;;;;;;;;;10352223;28;20437;-67
2022/08/30 18:12:37;;;;;;;30.70;9.88;;;;;;;;;;10340220;28;20040;-68
2022/08/30 18:17:40;;;;;;;27.50;9.57;;;;;;;;;;10339284;28;20346;-67
2022/08/30 18:22:43;;;;;;;21.55;7.53;;;;;;;;;;10351731;28;20082;-68
2022/08/30 18:27:48;;;;;;;16.27;6.82;;;;;;;;;;10328575;28;20079;-67
2022/08/30 18:32:56;;;;;;;21.85;7.50;;;;;;;;;;10353275;28;20519;-67
2022/08/30 18:37:54;;;;;;;21.02;7.55;;;;;;;;;;10357187;28;20151;-67
2022/08/30 18:42:53;;;;;;;16.55;6.72;;;;;;;;;;10359262;28;20519;-67
2022/08/30 18:47:52;;;;;;;23.95;9.07;;;;;;;;;;10347842;28;20083;-68
2022/08/30 18:52:51;;;;;;;24.00;8.07;;;;;;;;;;10347711;28;20067;-67
2022/08/30 18:57:54;;;;;;;16.70;6.45;;;;;;;;;;10346605;28;20493;-67
2022/08/30 19:02:53;;;;;;;17.65;6.50;;;;;;;;;;10349606;28;20076;-67
2022/08/30 19:07:53;;;;;;;21.63;7.85;;;;;;;;;;10344018;28;20277;-67
2022/08/30 19:12:55;;;;;;;13.65;6.55;;;;;;;;;;10344375;28;20041;-67
2022/08/30 19:17:54;;;;;;;17.20;7.80;;;;;;;;;;10343448;28;20067;-68
2022/08/30 19:22:54;;;;;;;21.23;7.35;;;;;;;;;;10348838;28;20066;-68
2022/08/30 19:28:07;;;;;;;;;;;;;;;;;;10345972;28;20071;-68
2022/08/30 19:33:06;;;;;;;17.83;6.90;;;;;;;;;;10339893;28;19970;-66
2022/08/30 19:38:12;;;;;;;;;;;;;;;;;;10351071;28;20449;-66
2022/08/30 19:43:10;;;;;;;12.05;5.80;;;;;;;;;;10346583;28;20420;-67
2022/08/30 19:48:10;;;;;;;16.08;7.03;;;;;;;;;;10347839;28;20072;-67
2022/08/30 19:53:08;;;;;;;14.63;6.57;;;;;;;;;;10346818;28;20060;-66
2022/08/30 19:58:07;;;;;;;25.65;6.82;;;;;;;;;;10346595;28;20102;-67
2022/08/30 20:03:07;;;;;;;13.38;6.05;;;;;;;;;;10346480;28;20066;-67
2022/08/30 20:08:08;;;;;;;14.38;6.13;;;;;;;;;;10347629;28;20079;-67
2022/08/30 20:13:06;;;;;;;11.95;6.35;;;;;;;;;;10345615;28;20079;-68
2022/08/30 20:18:06;;;;;;;15.27;7.43;;;;;;;;;;10345284;28;20075;-67
2022/08/30 20:23:13;;;;;;;20.23;6.65;;;;;;;;;;10345738;28;20107;-67
2022/08/30 20:28:16;;;;;;;16.70;6.88;;;;;;;;;;10347200;28;20060;-68
2022/08/30 20:33:15;;;;;;;15.55;8.73;;;;;;;;;;10341067;28;20071;-67
2022/08/30 20:38:19;;;;;;;12.27;6.60;;;;;;;;;;10339964;28;20102;-67
2022/08/30 20:43:18;;;;;;;8.35;5.82;;;;;;;;;;10345916;28;20068;-69
2022/08/30 20:48:16;;;;;;;17.08;7.35;;;;;;;;;;10339346;28;20079;-67
2022/08/30 20:53:16;;;;;;;15.65;6.82;;;;;;;;;;10338961;28;20114;-67
2022/08/30 20:58:14;;;;;;;15.65;6.30;;;;;;;;;;10336715;28;20078;-67
2022/08/30 21:03:13;;;;;;;9.82;6.50;;;;;;;;;;10334058;28;20470;-66
2022/08/30 21:08:25;;;;;;;13.07;6.65;;;;;;;;;;10353102;28;20056;-67
2022/08/30 21:13:23;;;;;;;13.20;6.15;;;;;;;;;;10355217;28;20079;-67
2022/08/30 21:18:22;;;;;;;9.20;6.25;;;;;;;;;;10357662;28;20068;-67
2022/08/30 21:23:20;;;;;;;11.85;6.55;;;;;;;;;;10342108;28;20075;-68
2022/08/30 21:28:20;;;;;;;8.38;6.60;;;;;;;;;;10348984;28;20063;-68
2022/08/30 21:33:18;;;;;;;12.18;6.20;;;;;;;;;;10345643;28;20076;-67
2022/08/30 21:38:16;;;;;;;17.58;7.30;;;;;;;;;;10344846;28;20083;-67
2022/08/30 21:43:15;;;;;;;15.73;6.57;;;;;;;;;;10347507;28;20079;-67
2022/08/30 21:48:15;;;;;;;9.93;5.93;;;;;;;;;;10361168;28;20052;-66
2022/08/30 21:53:13;;;;;;;12.13;6.65;;;;;;;;;;10361341;28;20162;-67
2022/08/30 21:58:14;;;;;;;10.07;5.85;;;;;;;;;;10361477;28;20523;-67
2022/08/30 22:03:12;;;;;;;11.10;6.30;;;;;;;;;;10345224;28;20075;-67
2022/08/30 22:08:12;;;;;;;6.45;5.80;;;;;;;;;;10344643;28;20474;-67
2022/08/30 22:13:11;;;;;;;13.30;5.55;;;;;;;;;;10343320;28;20066;-66
2022/08/30 22:18:10;;;;;;;8.60;5.60;;;;;;;;;;10345647;28;20063;-66
2022/08/30 22:23:12;;;;;;;11.38;5.80;;;;;;;;;;10345900;28;20068;-67
2022/08/30 22:28:16;;;;;;;10.57;5.93;;;;;;;;;;10345894;28;20075;-67
2022/08/30 22:33:15;;;;;;;10.98;5.95;;;;;;;;;;10344823;28;20075;-67
2022/08/30 22:38:14;;;;;;;12.00;5.78;;;;;;;;;;10346524;28;20068;-67
2022/08/30 22:43:13;;;;;;;9.35;5.97;;;;;;;;;;10346204;28;20084;-67
2022/08/30 22:48:11;;;;;;;13.02;6.20;;;;;;;;;;10345169;28;20095;-67
2022/08/30 22:53:10;;;;;;;14.55;6.72;;;;;;;;;;10327604;28;20052;-67
2022/08/30 22:58:09;;;;;;;12.77;6.22;;;;;;;;;;10344840;28;20063;-68
2022/08/30 23:03:07;;;;;;;7.93;5.40;;;;;;;;;;10345680;28;20068;-67
2022/08/30 23:08:06;;;;;;;7.93;5.75;;;;;;;;;;10344653;28;20067;-67
2022/08/30 23:13:05;;;;;;;9.48;4.60;;;;;;;;;;10344425;28;20083;-67
2022/08/30 23:18:05;;;;;;;7.97;5.93;;;;;;;;;;10344102;28;20087;-67
